Time;durP1;ratioP1;P1;durP2;ratioP2;P2;SDS_P1;SDS_P2;PMS_P1;PMS_P2;Temp;Humidity;BMP_temperature;BMP_pressure;BME280_temperature;BME280_humidity;BME280_pressure;Samples;Min_cycle;Max_cycle;Signal;HPM_P1;HPM_P2
2022/05/02 00:00:28;;;;;;;1.47;1.10;;;10.70;92.50;;;;;;5060852;28;20462;-80
2022/05/02 00:02:55;;;;;;;1.47;1.10;;;10.70;92.70;;;;;;5050905;28;20511;-82
2022/05/02 00:05:22;;;;;;;1.47;1.10;;;10.60;93.20;;;;;;5045671;28;20479;-82
2022/05/02 00:07:49;;;;;;;1.50;1.10;;;10.60;93.60;;;;;;5064036;28;20492;-82
2022/05/02 00:10:17;;;;;;;1.50;1.10;;;10.50;93.50;;;;;;5042023;28;20817;-84
2022/05/02 00:12:44;;;;;;;1.50;1.20;;;10.40;93.60;;;;;;5061484;28;20541;-84
2022/05/02 00:15:12;;;;;;;1.43;1.10;;;10.40;93.60;;;;;;5046313;28;20495;-82
2022/05/02 00:17:59;;;;;;;1.47;1.10;;;10.40;93.60;;;;;;5049407;28;20463;-85
2022/05/02 00:20:28;;;;;;;1.50;1.20;;;10.30;93.90;;;;;;5054208;28;20462;-84
2022/05/02 00:22:56;;;;;;;1.43;1.10;;;10.30;94.60;;;;;;5057906;28;20462;-84
2022/05/02 00:25:23;;;;;;;1.47;1.10;;;10.20;94.80;;;;;;5049008;28;20562;-83
2022/05/02 00:27:51;;;;;;;1.50;1.10;;;10.20;94.20;;;;;;5061810;28;20477;-83
2022/05/02 00:30:18;;;;;;;1.50;1.10;;;10.20;94.00;;;;;;5058045;28;20462;-82
2022/05/02 00:32:47;;;;;;;1.50;1.10;;;10.10;93.80;;;;;;5062605;28;20481;-82
2022/05/02 00:35:14;;;;;;;1.47;1.10;;;10.10;94.00;;;;;;5048255;28;21020;-80
2022/05/02 00:37:42;;;;;;;1.50;1.20;;;10.10;94.30;;;;;;5060020;28;20476;-81
2022/05/02 00:40:11;;;;;;;1.50;1.10;;;10.00;94.00;;;;;;5040693;28;20471;-82
2022/05/02 00:42:39;;;;;;;1.47;1.10;;;10.00;94.70;;;;;;5047146;28;20835;-83
2022/05/02 00:45:07;;;;;;;1.50;1.10;;;9.90;94.40;;;;;;5060832;28;20486;-81
2022/05/02 00:47:34;;;;;;;1.50;1.00;;;9.90;95.10;;;;;;5055207;28;20462;-82
2022/05/02 00:50:03;;;;;;;1.50;1.20;;;9.90;95.40;;;;;;5051675;28;20457;-83
2022/05/02 00:52:30;;;;;;;1.50;1.20;;;9.90;95.90;;;;;;5050023;28;20479;-81
2022/05/02 00:54:57;;;;;;;1.50;1.30;;;9.90;95.20;;;;;;5040954;28;20563;-81
2022/05/02 00:57:25;;;;;;;1.50;1.20;;;9.80;95.10;;;;;;5046559;28;20465;-83
2022/05/02 00:59:51;;;;;;;1.50;1.10;;;9.80;94.80;;;;;;5058727;28;20462;-84
2022/05/02 01:02:19;;;;;;;1.47;1.10;;;9.70;95.00;;;;;;5052476;28;20466;-80
2022/05/02 01:04:46;;;;;;;1.50;1.20;;;9.70;95.80;;;;;;5052401;28;21116;-81
2022/05/02 01:07:19;;;;;;;1.50;1.10;;;9.70;95.80;;;;;;5056918;28;20462;-83
2022/05/02 01:09:47;;;;;;;1.50;1.10;;;9.60;95.20;;;;;;5060549;28;20488;-82
2022/05/02 01:12:17;;;;;;;1.50;1.10;;;9.60;95.20;;;;;;5046497;28;20474;-82
2022/05/02 01:14:46;;;;;;;1.50;1.20;;;9.60;95.80;;;;;;5040189;28;20486;-82
2022/05/02 01:17:13;;;;;;;1.50;1.20;;;9.50;95.90;;;;;;5044711;28;20494;-82
2022/05/02 01:19:40;;;;;;;1.47;1.10;;;9.50;95.90;;;;;;5051966;28;20950;-82
2022/05/02 01:22:09;;;;;;;1.50;1.20;;;9.50;95.90;;;;;;5053656;28;20463;-83
2022/05/02 01:24:37;;;;;;;1.47;1.13;;;9.50;96.60;;;;;;5053914;28;21301;-84
2022/05/02 01:27:05;;;;;;;1.50;1.10;;;9.50;96.40;;;;;;5052960;28;20463;-82
2022/05/02 01:29:34;;;;;;;1.87;1.77;;;9.50;96.20;;;;;;5047480;28;20824;-82
2022/05/02 01:32:01;;;;;;;1.50;1.27;;;9.50;97.00;;;;;;5041358;28;20741;-79
2022/05/02 01:34:28;;;;;;;1.43;1.10;;;9.50;96.70;;;;;;5039455;28;20479;-82
2022/05/02 01:36:56;;;;;;;1.50;1.30;;;9.50;96.90;;;;;;5041934;28;20519;-79
2022/05/02 01:39:24;;;;;;;1.47;1.10;;;9.50;97.40;;;;;;5049049;28;20680;-81
2022/05/02 01:41:51;;;;;;;1.50;1.20;;;9.50;97.50;;;;;;5053017;28;20473;-82
2022/05/02 01:44:18;;;;;;;1.50;1.20;;;9.50;98.20;;;;;;5057276;28;20474;-83
2022/05/02 01:46:45;;;;;;;1.50;1.20;;;9.60;98.20;;;;;;5039964;28;20460;-84
2022/05/02 01:49:12;;;;;;;1.47;1.10;;;9.60;98.20;;;;;;5054386;28;20497;-84
2022/05/02 01:51:40;;;;;;;1.50;1.13;;;9.60;98.20;;;;;;5055985;28;20461;-80
2022/05/02 01:54:07;;;;;;;1.47;1.10;;;9.60;98.20;;;;;;5057905;28;20547;-81
2022/05/02 01:56:36;;;;;;;1.50;1.10;;;9.70;98.20;;;;;;5051088;28;20481;-84
2022/05/02 01:59:03;;;;;;;1.50;1.20;;;9.70;98.20;;;;;;5040874;28;20528;-82
2022/05/02 02:01:30;;;;;;;1.47;1.10;;;9.70;97.70;;;;;;5056234;28;20481;-82
2022/05/02 02:03:59;;;;;;;1.50;1.10;;;9.70;98.20;;;;;;5046331;28;20566;-83
2022/05/02 02:06:26;;;;;;;1.47;1.20;;;9.80;98.00;;;;;;5058474;28;20457;-82
2022/05/02 02:08:54;;;;;;;1.43;1.10;;;9.80;97.50;;;;;;5055123;28;20458;-81
2022/05/02 02:11:24;;;;;;;1.50;1.20;;;9.90;98.20;;;;;;5047858;28;20463;-79
2022/05/02 02:13:53;;;;;;;1.43;1.10;;;9.90;97.70;;;;;;5041968;28;20824;-81
2022/05/02 02:16:20;;;;;;;1.50;1.20;;;9.90;97.70;;;;;;5045957;28;20481;-81
2022/05/02 02:18:47;;;;;;;1.50;1.20;;;9.90;98.20;;;;;;5047058;28;20468;-79
2022/05/02 02:21:14;;;;;;;1.47;1.10;;;9.90;98.20;;;;;;5049023;28;20477;-83
2022/05/02 02:23:43;;;;;;;1.50;1.20;;;10.00;97.90;;;;;;5054352;28;20486;-82
2022/05/02 02:26:10;;;;;;;1.50;1.10;;;10.00;97.60;;;;;;5055582;28;20490;-85
2022/05/02 02:28:39;;;;;;;1.43;1.10;;;10.00;98.00;;;;;;5050994;28;20464;-81
2022/05/02 02:31:08;;;;;;;1.50;1.20;;;10.00;97.50;;;;;;5041512;28;20560;-84
2022/05/02 02:33:37;;;;;;;1.47;1.10;;;10.00;98.00;;;;;;5073689;28;20509;-81
2022/05/02 02:36:04;;;;;;;1.50;1.20;;;10.00;97.90;;;;;;5051127;28;20486;-80
2022/05/02 02:38:32;;;;;;;1.50;1.10;;;10.10;98.00;;;;;;5049696;28;20462;-80
2022/05/02 02:40:59;;;;;;;1.47;1.10;;;10.10;97.70;;;;;;5051431;28;20466;-81
2022/05/02 02:43:27;;;;;;;1.50;1.10;;;10.10;97.90;;;;;;5052260;28;20492;-83
2022/05/02 02:45:54;;;;;;;1.50;1.10;;;10.10;96.90;;;;;;5053469;28;21028;-82
2022/05/02 02:48:23;;;;;;;1.50;1.20;;;10.10;96.70;;;;;;5054902;28;20640;-81
2022/05/02 02:50:51;;;;;;;1.47;1.10;;;10.10;96.90;;;;;;5054958;28;20459;-83
2022/05/02 02:53:18;;;;;;;1.47;1.10;;;10.10;98.10;;;;;;5051593;28;20466;-81
2022/05/02 02:55:46;;;;;;;1.50;1.10;;;10.10;97.70;;;;;;5050609;28;20550;-83
2022/05/02 02:58:13;;;;;;;1.50;1.20;;;10.10;97.70;;;;;;5056184;28;20463;-80
2022/05/02 03:00:40;;;;;;;1.47;1.10;;;10.10;97.70;;;;;;5051374;28;20498;-81
2022/05/02 03:03:08;;;;;;;1.50;1.10;;;10.10;98.00;;;;;;5044396;28;20467;-84
2022/05/02 03:08:22;;;;;;;1.50;1.20;;;10.10;97.90;;;;;;5049010;28;20473;-82
2022/05/02 03:10:49;;;;;;;1.43;1.10;;;10.10;98.20;;;;;;5060070;28;20462;-84
2022/05/02 03:13:16;;;;;;;1.50;1.10;;;10.20;97.90;;;;;;5057973;28;20557;-78
2022/05/02 03:15:44;;;;;;;1.47;1.10;;;10.10;98.00;;;;;;5062446;28;20563;-83
2022/05/02 03:18:11;;;;;;;1.50;1.10;;;10.20;98.10;;;;;;5038447;28;20485;-84
2022/05/02 03:20:39;;;;;;;1.50;1.10;;;10.20;98.10;;;;;;5060234;28;20498;-80
2022/05/02 03:23:07;;;;;;;1.43;1.10;;;10.20;98.20;;;;;;5062228;28;20478;-81
2022/05/02 03:25:34;;;;;;;1.50;1.10;;;10.20;98.20;;;;;;5049812;28;20514;-82
2022/05/02 03:28:02;;;;;;;1.50;1.10;;;10.20;98.20;;;;;;5058787;28;20481;-81
2022/05/02 03:30:29;;;;;;;1.50;1.20;;;10.20;98.20;;;;;;5046746;28;20555;-80
2022/05/02 03:32:55;;;;;;;1.43;1.10;;;10.20;98.20;;;;;;5061122;28;20492;-80
2022/05/02 03:35:23;;;;;;;1.47;1.00;;;10.20;98.20;;;;;;5043593;28;20482;-80
2022/05/02 03:37:51;;;;;;;1.47;1.10;;;10.30;98.20;;;;;;5046320;28;20514;-80
2022/05/02 03:40:21;;;;;;;1.43;1.10;;;10.20;98.20;;;;;;5041968;28;20463;-84
2022/05/02 03:42:48;;;;;;;1.50;1.20;;;10.30;98.20;;;;;;5041319;28;20551;-80
2022/05/02 03:45:15;;;;;;;1.50;1.10;;;10.30;98.20;;;;;;5055154;28;20486;-84
2022/05/02 03:47:42;;;;;;;1.47;1.10;;;10.30;98.20;;;;;;5058517;28;20541;-81
2022/05/02 03:50:10;;;;;;;1.47;1.10;;;10.30;98.20;;;;;;5060046;28;20538;-85
2022/05/02 03:52:37;;;;;;;1.50;1.10;;;10.30;98.20;;;;;;5050592;28;20581;-82
2022/05/02 03:55:07;;;;;;;1.50;1.10;;;10.30;98.20;;;;;;5051772;28;20554;-84
2022/05/02 03:57:34;;;;;;;1.50;1.10;;;10.30;98.20;;;;;;5053988;28;20497;-81
2022/05/02 04:00:01;;;;;;;1.47;1.10;;;10.30;98.20;;;;;;5059947;28;20465;-83
2022/05/02 04:02:28;;;;;;;1.50;1.07;;;10.30;98.20;;;;;;5053839;28;20463;-80
2022/05/02 04:04:55;;;;;;;1.50;1.10;;;10.30;98.20;;;;;;5058132;28;20574;-82
2022/05/02 04:07:22;;;;;;;1.47;1.10;;;10.30;98.20;;;;;;5051449;28;20594;-81
2022/05/02 04:09:49;;;;;;;1.43;1.20;;;10.30;98.20;;;;;;5049306;28;20477;-83
2022/05/02 04:12:20;;;;;;;1.40;1.10;;;10.30;98.20;;;;;;5047884;28;20486;-85
2022/05/02 04:14:47;;;;;;;1.50;1.20;;;10.30;98.20;;;;;;5047942;28;20511;-84
2022/05/02 04:17:14;;;;;;;1.47;1.10;;;10.30;98.20;;;;;;5056758;28;20573;-85
2022/05/02 04:19:41;;;;;;;1.50;1.10;;;10.30;98.20;;;;;;5056487;28;20462;-82
2022/05/02 04:22:08;;;;;;;1.47;1.10;;;10.30;98.20;;;;;;5051568;28;20553;-81
2022/05/02 04:24:35;;;;;;;1.43;1.10;;;10.30;98.20;;;;;;5046203;28;20481;-80
2022/05/02 04:27:05;;;;;;;1.47;1.10;;;10.30;98.20;;;;;;5045510;28;20487;-85
2022/05/02 04:29:34;;;;;;;1.50;1.00;;;10.30;98.20;;;;;;5039567;28;20475;-85
2022/05/02 04:32:01;;;;;;;1.50;1.20;;;10.20;98.20;;;;;;5049291;28;20527;-85
2022/05/02 04:34:28;;;;;;;1.50;1.20;;;10.30;98.20;;;;;;5058253;28;20486;-85
2022/05/02 04:36:55;;;;;;;1.50;1.10;;;10.30;98.20;;;;;;5051800;28;20473;-79
2022/05/02 04:39:22;;;;;;;1.50;1.00;;;10.30;98.20;;;;;;5050563;28;20466;-82
2022/05/02 04:41:49;;;;;;;1.50;1.10;;;10.30;98.20;;;;;;5052853;28;20949;-85
2022/05/02 04:44:16;;;;;;;1.43;1.10;;;10.30;98.20;;;;;;5046601;28;20918;-83
2022/05/02 04:46:44;;;;;;;1.50;1.10;;;10.30;98.20;;;;;;5053200;28;20826;-83
2022/05/02 04:49:11;;;;;;;1.50;1.10;;;10.30;98.20;;;;;;5047765;28;20459;-86
2022/05/02 04:51:38;;;;;;;1.50;1.10;;;10.40;98.20;;;;;;5047177;28;20513;-83
2022/05/02 04:54:09;;;;;;;1.47;1.10;;;10.40;98.20;;;;;;5043865;28;21024;-83
2022/05/02 04:56:35;;;;;;;1.43;1.10;;;10.40;98.20;;;;;;5054467;28;20497;-83
2022/05/02 04:59:02;;;;;;;1.50;1.10;;;10.40;98.20;;;;;;5057066;28;20454;-83
2022/05/02 05:01:29;;;;;;;1.47;1.10;;;10.40;98.20;;;;;;5049426;28;20469;-80
2022/05/02 05:03:58;;;;;;;1.47;1.00;;;10.50;98.20;;;;;;5049090;28;20553;-77
2022/05/02 05:06:25;;;;;;;1.50;1.10;;;10.50;98.20;;;;;;5045726;28;20929;-79
2022/05/02 05:08:52;;;;;;;1.50;1.10;;;10.50;98.20;;;;;;5062591;28;20459;-81
2022/05/02 05:11:31;;;;;;;1.43;1.10;;;10.60;98.20;;;;;;5050189;28;20451;-79
2022/05/02 05:17:14;;;;;;;1.50;1.10;;;10.70;98.20;;;;;;5040311;28;20642;-80
2022/05/02 05:20:11;;;;;;;1.50;1.13;;;10.70;98.20;;;;;;5051516;28;20470;-81
2022/05/02 05:22:54;;;;;;;1.47;1.10;;;10.80;98.20;;;;;;5048812;28;20459;-80
2022/05/02 05:25:44;;;;;;;1.50;1.20;;;10.80;98.20;;;;;;5044167;28;20491;-81
2022/05/02 05:28:42;;;;;;;1.50;1.10;;;10.90;98.20;;;;;;5042168;28;20537;-79
2022/05/02 05:31:23;;;;;;;1.47;1.00;;;11.00;98.20;;;;;;5030382;28;20508;-79
2022/05/02 05:33:52;;;;;;;1.43;1.00;;;11.00;98.20;;;;;;5066798;28;20550;-80
2022/05/02 05:36:33;;;;;;;1.47;1.07;;;11.10;98.20;;;;;;5046447;28;20470;-84
2022/05/02 05:39:04;;;;;;;1.50;1.10;;;11.10;98.20;;;;;;5040249;28;20498;-82
2022/05/02 05:41:46;;;;;;;1.50;1.10;;;11.20;97.90;;;;;;5050073;28;20532;-79
2022/05/02 05:44:26;;;;;;;1.50;1.10;;;11.20;97.70;;;;;;5045389;28;20556;-81
2022/05/02 05:47:07;;;;;;;1.40;1.00;;;11.30;97.40;;;;;;5043263;28;20477;-80
2022/05/02 05:49:48;;;;;;;1.50;1.03;;;11.30;96.90;;;;;;5062463;28;20536;-79
2022/05/02 05:52:24;;;;;;;1.50;1.10;;;11.30;97.10;;;;;;5057667;28;20619;-81
2022/05/02 05:55:04;;;;;;;1.50;1.03;;;11.40;97.60;;;;;;5057805;28;20517;-80
2022/05/02 05:57:37;;;;;;;1.43;1.10;;;11.50;97.00;;;;;;5051238;28;21077;-79
2022/05/02 06:00:10;;;;;;;1.50;1.10;;;11.60;96.80;;;;;;5045543;28;20557;-80
2022/05/02 06:02:49;;;;;;;1.47;1.00;;;11.60;96.50;;;;;;5050875;28;20558;-80
2022/05/02 06:05:17;;;;;;;1.47;1.00;;;11.70;96.50;;;;;;5045491;28;20502;-84
2022/05/02 06:07:47;;;;;;;1.50;1.00;;;11.90;96.30;;;;;;5052013;28;20615;-80
2022/05/02 06:10:16;;;;;;;1.43;1.00;;;12.00;96.10;;;;;;5050678;28;20454;-81
2022/05/02 06:12:45;;;;;;;1.50;1.10;;;12.10;96.10;;;;;;5057271;28;20497;-81
2022/05/02 06:20:45;;;;;;;1.50;1.00;;;12.50;94.40;;;;;;5055805;28;20518;-80
2022/05/02 06:23:14;;;;;;;1.40;1.00;;;12.70;93.90;;;;;;5048934;28;20577;-81
2022/05/02 06:25:44;;;;;;;1.70;1.47;;;12.80;94.00;;;;;;5041295;28;20573;-79
2022/05/02 06:28:11;;;;;;;1.50;1.00;;;13.00;93.20;;;;;;5054572;28;20513;-80
2022/05/02 06:30:42;;;;;;;1.50;1.00;;;13.10;93.30;;;;;;5044272;28;20577;-82
2022/05/02 06:33:12;;;;;;;1.50;1.10;;;13.30;92.80;;;;;;5050184;28;20975;-79
2022/05/02 06:35:53;;;;;;;2.57;2.37;;;13.50;92.00;;;;;;5050345;28;20788;-80
2022/05/02 06:38:38;;;;;;;1.50;1.10;;;13.70;91.20;;;;;;5053846;28;21021;-82
2022/05/02 06:41:15;;;;;;;1.50;1.00;;;13.90;90.50;;;;;;5032100;28;20540;-81
2022/05/02 06:43:50;;;;;;;1.50;1.00;;;14.00;90.10;;;;;;5065829;28;20486;-80
2022/05/02 06:46:20;;;;;;;1.50;1.00;;;14.10;89.20;;;;;;5054584;28;20466;-81
2022/05/02 06:48:51;;;;;;;1.50;1.00;;;14.20;89.30;;;;;;5053511;28;20552;-82
2022/05/02 06:51:30;;;;;;;1.50;1.00;;;14.30;88.80;;;;;;5052705;28;20923;-82
2022/05/02 06:54:27;;;;;;;1.50;1.10;;;14.40;89.00;;;;;;5043334;28;20531;-79
2022/05/02 06:57:04;;;;;;;1.47;0.90;;;14.60;89.30;;;;;;5037475;28;20478;-79
2022/05/02 06:59:40;;;;;;;1.40;1.00;;;14.60;87.80;;;;;;5048484;28;20454;-79
2022/05/02 07:02:44;;;;;;;1.40;1.00;;;14.50;87.30;;;;;;5038855;28;20451;-78
2022/05/02 07:05:18;;;;;;;1.40;1.00;;;14.50;87.90;;;;;;5046901;28;20508;-78
2022/05/02 07:07:58;;;;;;;1.73;1.20;;;14.60;88.70;;;;;;5049667;28;20459;-79
2022/05/02 07:10:31;;;;;;;1.50;1.20;;;14.60;88.60;;;;;;5059559;28;20466;-78
2022/05/02 07:13:06;;;;;;;1.70;1.47;;;14.60;88.30;;;;;;5062456;28;20527;-78
2022/05/02 07:15:41;;;;;;;1.47;0.90;;;14.70;88.20;;;;;;5052544;28;20479;-79
2022/05/02 07:18:13;;;;;;;1.43;0.97;;;14.80;88.00;;;;;;5045057;28;21083;-78
2022/05/02 07:20:52;;;;;;;1.43;1.00;;;14.80;88.40;;;;;;5055889;28;20473;-78
2022/05/02 07:23:32;;;;;;;1.50;1.00;;;14.80;88.20;;;;;;5043186;28;20810;-78
2022/05/02 07:26:07;;;;;;;1.47;0.90;;;14.90;87.90;;;;;;5044338;28;20488;-79
2022/05/02 07:28:42;;;;;;;1.50;0.90;;;14.90;88.30;;;;;;5050839;28;20450;-79
2022/05/02 07:31:09;;;;;;;1.50;1.00;;;15.10;88.10;;;;;;5028720;28;20555;-79
2022/05/02 07:33:37;;;;;;;1.40;1.00;;;15.10;87.80;;;;;;5050424;28;20909;-79
2022/05/02 07:36:06;;;;;;;1.50;1.10;;;15.30;87.80;;;;;;5036598;28;20994;-78
2022/05/02 07:38:35;;;;;;;1.47;0.90;;;15.40;87.80;;;;;;5035951;28;21007;-78
2022/05/02 07:44:03;;;;;;;1.50;1.00;;;15.60;86.30;;;;;;5016245;28;20491;-79
2022/05/02 07:46:32;;;;;;;1.43;1.00;;;15.70;86.10;;;;;;5037101;28;20691;-78
2022/05/02 07:49:00;;;;;;;1.50;1.00;;;15.80;86.40;;;;;;5067800;28;20466;-78
2022/05/02 07:51:28;;;;;;;1.43;1.00;;;15.90;86.30;;;;;;5061221;28;20504;-77
2022/05/02 07:53:57;;;;;;;1.43;1.00;;;16.10;85.40;;;;;;5050306;28;20489;-77
2022/05/02 07:56:27;;;;;;;1.50;0.93;;;16.20;86.20;;;;;;5050898;28;20560;-77
2022/05/02 07:58:55;;;;;;;1.50;0.90;;;16.30;84.90;;;;;;5068569;28;20495;-77
2022/05/02 08:01:23;;;;;;;1.43;0.90;;;16.50;85.10;;;;;;5041250;28;20477;-77
2022/05/02 08:03:52;;;;;;;1.47;1.00;;;16.60;84.20;;;;;;5066480;28;20554;-78
2022/05/02 08:06:33;;;;;;;1.43;0.90;;;16.70;83.60;;;;;;5056859;28;20537;-77
2022/05/02 08:09:08;;;;;;;1.47;0.90;;;16.90;83.60;;;;;;5044578;28;20534;-77
2022/05/02 08:11:49;;;;;;;1.50;1.00;;;16.90;83.30;;;;;;5051640;28;20468;-77
2022/05/02 08:14:22;;;;;;;1.50;1.00;;;16.90;83.80;;;;;;5037572;28;20490;-77
2022/05/02 08:17:00;;;;;;;1.50;1.10;;;16.90;84.10;;;;;;5041496;28;20456;-78
2022/05/02 08:19:41;;;;;;;1.50;1.00;;;17.00;84.10;;;;;;5047690;28;20470;-78
2022/05/02 08:28:02;;;;;;;1.50;1.00;;;18.00;81.90;;;;;;5045319;28;20479;-78
2022/05/02 08:30:34;;;;;;;1.43;0.90;;;18.40;81.80;;;;;;5038331;28;20467;-77
2022/05/02 08:33:04;;;;;;;1.50;0.90;;;18.70;80.50;;;;;;5057195;28;20515;-78
2022/05/02 08:35:46;;;;;;;1.47;0.90;;;18.80;79.90;;;;;;5042838;28;20640;-79
2022/05/02 08:38:42;;;;;;;1.47;0.90;;;19.10;78.90;;;;;;5039949;28;20494;-80
2022/05/02 08:41:39;;;;;;;1.50;0.90;;;19.30;78.20;;;;;;5033486;28;20477;-80
2022/05/02 08:45:02;;;;;;;1.47;0.90;;;19.60;77.50;;;;;;5049869;28;20536;-80
2022/05/02 08:47:56;;;;;;;1.47;0.90;;;19.70;77.70;;;;;;5054582;28;20462;-80
2022/05/02 08:50:29;;;;;;;1.50;0.90;;;19.80;77.80;;;;;;5049473;28;20462;-79
2022/05/02 08:53:31;;;;;;;1.50;0.90;;;20.00;78.00;;;;;;5046535;28;20470;-80
2022/05/02 08:56:20;;;;;;;1.47;0.90;;;20.10;76.60;;;;;;5040335;28;20816;-80
2022/05/02 08:59:33;;;;;;;1.50;0.93;;;20.20;75.90;;;;;;5061371;28;20494;-78
2022/05/02 09:02:32;;;;;;;1.50;1.10;;;20.00;75.90;;;;;;5034932;28;21033;-79
2022/05/02 09:05:49;;;;;;;1.50;0.90;;;20.20;77.50;;;;;;5044688;28;20827;-81
2022/05/02 09:08:55;;;;;;;1.50;0.90;;;20.40;76.10;;;;;;5047697;28;20454;-79
2022/05/02 09:11:49;;;;;;;1.50;0.90;;;20.70;75.80;;;;;;5036104;28;20568;-83
2022/05/02 09:14:44;;;;;;;1.47;0.90;;;20.80;75.90;;;;;;5051159;28;20478;-81
2022/05/02 09:17:59;;;;;;;1.50;0.90;;;20.80;75.50;;;;;;5054180;28;20469;-85
2022/05/02 09:20:57;;;;;;;1.47;0.90;;;20.90;74.30;;;;;;4980814;28;21016;-85
2022/05/02 09:23:58;;;;;;;1.50;0.90;;;21.10;74.30;;;;;;5056266;28;20553;-82
2022/05/02 09:26:57;;;;;;;1.50;0.90;;;21.30;74.40;;;;;;5049210;28;20485;-84
2022/05/02 09:30:02;;;;;;;1.50;1.00;;;21.20;73.30;;;;;;5049195;28;20892;-82
2022/05/02 09:32:45;;;;;;;1.50;0.90;;;21.40;74.40;;;;;;5062136;28;20503;-84
2022/05/02 09:35:27;;;;;;;1.47;0.90;;;21.60;72.20;;;;;;5047621;28;20521;-84
2022/05/02 09:38:00;;;;;;;1.47;0.87;;;21.80;71.60;;;;;;5053371;28;20487;-84
2022/05/02 09:40:41;;;;;;;1.43;0.90;;;21.80;71.20;;;;;;5060250;28;20463;-82
2022/05/02 09:49:54;;;;;;;1.50;0.87;;;22.20;71.00;;;;;;5050619;28;20442;-81
2022/05/02 09:52:29;;;;;;;1.50;0.83;;;22.30;69.00;;;;;;5050880;28;20486;-81
2022/05/02 09:58:26;;;;;;;1.50;0.90;;;22.40;69.30;;;;;;4994805;28;20500;-80
2022/05/02 10:01:07;;;;;;;1.50;0.80;;;22.50;70.40;;;;;;5034781;28;20482;-82
2022/05/02 10:03:39;;;;;;;1.50;0.90;;;22.70;69.60;;;;;;5063550;28;20473;-85
2022/05/02 10:06:10;;;;;;;1.50;0.90;;;22.80;68.70;;;;;;5048562;28;20463;-82
2022/05/02 10:08:50;;;;;;;1.50;0.90;;;22.90;69.00;;;;;;5066274;28;20462;-81
2022/05/02 10:11:49;;;;;;;1.40;0.90;;;23.00;69.20;;;;;;5045770;28;21249;-81
2022/05/02 10:14:39;;;;;;;1.47;0.87;;;23.20;68.40;;;;;;5026720;28;21053;-79
2022/05/02 10:17:08;;;;;;;1.40;0.80;;;23.40;68.70;;;;;;5024929;28;20546;-79
2022/05/02 10:20:09;;;;;;;1.50;0.80;;;23.60;68.70;;;;;;5045751;28;20548;-77
2022/05/02 10:22:48;;;;;;;1.50;0.90;;;23.70;67.80;;;;;;5038098;28;20447;-78
2022/05/02 10:25:20;;;;;;;1.40;0.80;;;23.80;66.50;;;;;;5036717;28;20930;-79
2022/05/02 10:28:15;;;;;;;1.43;0.90;;;23.80;66.70;;;;;;5051364;28;20484;-77
2022/05/02 10:30:50;;;;;;;1.40;0.90;;;23.80;66.00;;;;;;5037449;28;20471;-77
2022/05/02 10:33:25;;;;;;;1.40;0.90;;;23.80;66.90;;;;;;5039137;28;20466;-80
2022/05/02 10:35:53;;;;;;;1.40;0.80;;;24.00;65.00;;;;;;5051552;28;20485;-80
2022/05/02 10:38:28;;;;;;;1.60;1.10;;;24.00;65.10;;;;;;5057428;28;20508;-82
2022/05/02 10:41:02;;;;;;;1.43;0.90;;;24.10;65.50;;;;;;5046089;28;20474;-83
2022/05/02 10:43:35;;;;;;;1.47;0.90;;;24.10;66.30;;;;;;5052563;28;20677;-78
2022/05/02 10:46:03;;;;;;;1.40;0.90;;;24.20;65.70;;;;;;5047324;28;20466;-82
2022/05/02 10:48:40;;;;;;;1.43;0.90;;;24.40;66.20;;;;;;5046861;28;20475;-78
2022/05/02 10:51:13;;;;;;;1.43;0.80;;;24.60;64.60;;;;;;5053183;28;21012;-79
2022/05/02 10:54:06;;;;;;;1.40;0.90;;;24.70;64.60;;;;;;5055288;28;20474;-80
2022/05/02 10:56:41;;;;;;;1.40;0.80;;;24.60;63.60;;;;;;5050950;28;20500;-82
2022/05/02 10:59:11;;;;;;;1.43;0.87;;;24.30;64.20;;;;;;5046525;28;20474;-79
2022/05/02 11:02:07;;;;;;;1.40;0.80;;;24.30;63.60;;;;;;5052947;28;20466;-77
2022/05/02 11:04:55;;;;;;;1.47;0.80;;;24.40;63.80;;;;;;5053478;28;20482;-81
2022/05/02 11:07:32;;;;;;;1.47;0.90;;;24.70;64.10;;;;;;5050476;28;20548;-77
2022/05/02 11:10:07;;;;;;;1.50;1.00;;;24.70;63.10;;;;;;5045667;28;20990;-82
2022/05/02 11:12:40;;;;;;;1.43;0.90;;;24.70;64.40;;;;;;5037934;28;20465;-79
2022/05/02 11:15:11;;;;;;;1.47;0.80;;;25.00;65.20;;;;;;5049084;28;20482;-81
2022/05/02 11:17:55;;;;;;;1.43;0.80;;;25.10;62.40;;;;;;5047056;28;20458;-80
2022/05/02 11:20:43;;;;;;;1.47;0.80;;;25.40;63.10;;;;;;5051168;28;20450;-83
2022/05/02 11:23:41;;;;;;;1.43;0.90;;;25.30;63.30;;;;;;5051500;28;20848;-80
2022/05/02 11:26:21;;;;;;;1.43;0.87;;;25.30;63.60;;;;;;5044283;28;21016;-79
2022/05/02 11:29:05;;;;;;;1.50;1.00;;;25.40;62.10;;;;;;5038270;28;20458;-79
2022/05/02 11:31:41;;;;;;;1.47;0.80;;;25.20;63.10;;;;;;5049761;28;20492;-78
2022/05/02 11:34:26;;;;;;;1.67;1.10;;;24.90;62.50;;;;;;5042282;28;20515;-82
2022/05/02 11:36:55;;;;;;;1.50;0.90;;;24.70;63.10;;;;;;5045446;28;20501;-79
2022/05/02 11:39:30;;;;;;;1.43;0.80;;;24.70;63.30;;;;;;5044700;28;20490;-77
2022/05/02 11:42:04;;;;;;;1.40;0.90;;;24.80;63.90;;;;;;5050955;28;20454;-85
2022/05/02 11:44:39;;;;;;;1.50;0.90;;;24.90;63.80;;;;;;5043803;28;20588;-82
2022/05/02 11:47:16;;;;;;;1.43;0.83;;;25.10;63.20;;;;;;5047562;28;20493;-81
2022/05/02 11:49:53;;;;;;;1.43;0.90;;;25.20;61.90;;;;;;5052114;28;20462;-81
2022/05/02 11:52:33;;;;;;;1.47;0.87;;;25.40;62.70;;;;;;5044263;28;20451;-80
2022/05/02 11:55:01;;;;;;;9.73;2.20;;;25.20;60.90;;;;;;5047753;28;20513;-80
2022/05/02 11:57:35;;;;;;;1.50;1.00;;;25.20;63.70;;;;;;5042980;28;20481;-79
2022/05/02 12:00:06;;;;;;;1.40;0.80;;;25.20;62.10;;;;;;5049201;28;20513;-82
2022/05/02 12:02:43;;;;;;;1.43;0.80;;;25.20;63.50;;;;;;5054840;28;20488;-79
2022/05/02 12:05:24;;;;;;;1.47;0.80;;;25.40;62.70;;;;;;5053780;28;20481;-78
2022/05/02 12:07:53;;;;;;;1.50;0.90;;;25.50;63.10;;;;;;5052157;28;20514;-77
2022/05/02 12:10:21;;;;;;;1.47;0.80;;;25.50;63.00;;;;;;5049015;28;20472;-83
2022/05/02 12:12:50;;;;;;;1.43;0.80;;;25.70;62.30;;;;;;5041693;28;20817;-79
2022/05/02 12:15:18;;;;;;;1.70;1.40;;;26.00;60.90;;;;;;5036564;28;20601;-78
2022/05/02 12:18:06;;;;;;;1.50;0.80;;;25.80;59.90;;;;;;5044280;28;20466;-80
2022/05/02 12:20:34;;;;;;;1.47;0.80;;;25.80;61.50;;;;;;5052489;28;20815;-79
2022/05/02 12:23:04;;;;;;;1.50;0.90;;;25.90;60.60;;;;;;5060278;28;20636;-79
2022/05/02 12:25:34;;;;;;;1.50;1.00;;;25.70;60.60;;;;;;5039027;28;20486;-80
2022/05/02 12:28:03;;;;;;;1.43;0.80;;;25.70;61.70;;;;;;5044798;28;20462;-80
2022/05/02 12:30:31;;;;;;;1.43;0.80;;;25.70;62.60;;;;;;5042217;28;20578;-81
2022/05/02 12:33:04;;;;;;;1.60;1.00;;;25.30;61.00;;;;;;5041612;28;20469;-79
2022/05/02 12:35:39;;;;;;;1.43;0.90;;;25.00;60.90;;;;;;5047305;28;20478;-81
2022/05/02 12:38:13;;;;;;;1.40;0.90;;;25.00;63.10;;;;;;5043378;28;20512;-79
2022/05/02 12:40:41;;;;;;;1.50;0.80;;;25.10;61.40;;;;;;5049084;28;20485;-81
2022/05/02 12:43:11;;;;;;;1.50;0.80;;;25.20;61.00;;;;;;5038478;28;20459;-80
2022/05/02 12:45:46;;;;;;;1.40;0.80;;;25.20;61.30;;;;;;5037993;28;20555;-81
2022/05/02 12:48:29;;;;;;;1.40;0.90;;;25.20;61.70;;;;;;5038799;28;20462;-78
2022/05/02 12:50:58;;;;;;;1.47;0.80;;;25.20;61.80;;;;;;5046885;28;20509;-79
2022/05/02 12:56:11;;;;;;;1.43;0.80;;;24.70;63.10;;;;;;5025002;28;20473;-79
2022/05/02 13:01:25;;;;;;;1.47;1.00;;;24.70;62.50;;;;;;5028734;28;20563;-79
2022/05/02 13:03:58;;;;;;;1.40;0.90;;;24.80;61.70;;;;;;5061366;28;20482;-82
2022/05/02 13:06:26;;;;;;;1.47;0.80;;;25.00;63.10;;;;;;5047360;28;20461;-78
2022/05/02 13:09:08;;;;;;;1.40;0.90;;;25.10;62.10;;;;;;5046289;28;20454;-81
2022/05/02 13:11:38;;;;;;;1.50;1.00;;;24.80;61.50;;;;;;5053185;28;20548;-80
2022/05/02 13:14:06;;;;;;;1.40;0.80;;;24.90;62.30;;;;;;5044492;28;20561;-79
2022/05/02 13:16:34;;;;;;;1.50;1.00;;;25.00;62.20;;;;;;5054328;28;20451;-81
2022/05/02 13:19:06;;;;;;;1.50;1.03;;;25.00;62.20;;;;;;5047325;28;20478;-78
2022/05/02 13:21:33;;;;;;;1.47;0.80;;;25.20;62.30;;;;;;5035521;28;20489;-76
2022/05/02 13:24:07;;;;;;;1.47;0.80;;;25.40;62.30;;;;;;5047843;28;20483;-80
2022/05/02 13:26:55;;;;;;;1.43;0.80;;;25.50;61.90;;;;;;5037333;28;20842;-78
2022/05/02 13:29:32;;;;;;;1.43;0.80;;;25.50;61.20;;;;;;5049334;28;20461;-80
2022/05/02 13:32:02;;;;;;;1.47;0.80;;;25.20;60.90;;;;;;5043964;28;20489;-81
2022/05/02 13:34:42;;;;;;;1.40;0.80;;;25.30;60.90;;;;;;5054021;28;20490;-77
2022/05/02 13:37:15;;;;;;;1.43;0.90;;;25.50;60.70;;;;;;5040129;28;20553;-78
2022/05/02 13:39:51;;;;;;;1.43;0.80;;;25.80;61.10;;;;;;5043022;28;20496;-79
2022/05/02 13:42:27;;;;;;;1.50;0.90;;;25.90;59.10;;;;;;5047086;28;20457;-77
2022/05/02 13:44:58;;;;;;;1.47;0.80;;;26.10;61.50;;;;;;5036485;28;20482;-79
2022/05/02 13:47:30;;;;;;;1.47;0.80;;;26.50;60.60;;;;;;5042434;28;20474;-79
2022/05/02 13:50:10;;;;;;;1.47;0.80;;;26.80;58.60;;;;;;5053492;28;20462;-82
2022/05/02 13:52:51;;;;;;;1.47;0.90;;;27.00;58.70;;;;;;5042329;28;20482;-79
2022/05/02 13:55:26;;;;;;;1.50;0.90;;;27.10;57.70;;;;;;5044153;28;20516;-81
2022/05/02 13:57:57;;;;;;;1.40;0.90;;;26.80;59.00;;;;;;5056766;28;20526;-78